Time;durP1;ratioP1;P1;durP2;ratioP2;P2;SDS_P1;SDS_P2;PMS_P1;PMS_P2;Temp;Humidity;BMP_temperature;BMP_pressure;BME280_temperature;BME280_humidity;BME280_pressure;Samples;Min_cycle;Max_cycle;Signal;HPM_P1;HPM_P2
2023/05/12 09:31:35;;;;;;;2.50;2.00;;;17.70;58.90;;;;;;1958364;72;26102;-47
2023/05/12 09:34:10;;;;;;;3.40;2.77;;;17.70;59.00;;;;;;1912798;75;21075;-47
2023/05/12 09:36:40;;;;;;;5.53;3.17;;;17.70;59.00;;;;;;1917676;75;21062;-49
2023/05/12 09:39:09;;;;;;;5.05;2.60;;;17.70;59.50;;;;;;1917648;75;21144;-48
2023/05/12 09:41:40;;;;;;;3.90;2.90;;;17.70;58.90;;;;;;1917613;75;21360;-49
2023/05/12 09:44:10;;;;;;;8.43;4.50;;;17.80;59.80;;;;;;1908192;75;21043;-49
2023/05/12 09:46:39;;;;;;;4.53;2.72;;;17.90;60.60;;;;;;1885151;76;21098;-48
2023/05/12 09:49:08;;;;;;;3.83;3.20;;;18.00;57.80;;;;;;1903817;75;20999;-49
2023/05/12 09:51:38;;;;;;;3.77;2.30;;;18.10;59.60;;;;;;1917569;75;21054;-48
2023/05/12 09:54:07;;;;;;;3.98;2.37;;;18.20;58.60;;;;;;1884723;76;21074;-48
2023/05/12 09:56:38;;;;;;;3.58;2.25;;;18.20;57.70;;;;;;1885431;76;21100;-49
2023/05/12 09:59:08;;;;;;;2.70;2.17;;;18.20;57.30;;;;;;1885412;76;21087;-49
2023/05/12 10:01:38;;;;;;;3.47;2.72;;;18.20;57.90;;;;;;1885423;76;21086;-49
2023/05/12 10:04:08;;;;;;;2.70;1.90;;;18.20;56.50;;;;;;1885329;76;21125;-49
2023/05/12 10:06:42;;;;;;;3.60;2.92;;;18.20;56.60;;;;;;1885408;76;21609;-49
2023/05/12 10:09:22;;;;;;;7.05;3.08;;;18.20;57.70;;;;;;1885821;76;21030;-48
2023/05/12 10:11:52;;;;;;;5.35;2.75;;;18.20;58.30;;;;;;1885922;75;21031;-47
2023/05/12 10:14:23;;;;;;;4.95;2.87;;;18.30;57.90;;;;;;1885823;76;21100;-50
2023/05/12 10:16:52;;;;;;;3.80;2.75;;;18.30;57.60;;;;;;1885845;76;21035;-49
2023/05/12 10:19:22;;;;;;;2.35;2.02;;;18.40;57.70;;;;;;1885843;76;21012;-48
2023/05/12 10:21:51;;;;;;;4.50;2.42;;;18.40;56.40;;;;;;1885946;76;21030;-49
2023/05/12 10:24:21;;;;;;;5.62;2.80;;;18.40;56.60;;;;;;1885792;76;21461;-47
2023/05/12 10:26:51;;;;;;;6.90;3.42;;;18.40;57.00;;;;;;1885781;76;21017;-48
2023/05/12 10:29:21;;;;;;;4.55;2.60;;;18.50;58.00;;;;;;1885716;76;21054;-48
2023/05/12 10:31:51;;;;;;;4.47;2.52;;;18.50;55.80;;;;;;1891219;76;21050;-48
2023/05/12 10:34:20;;;;;;;2.52;2.20;;;18.60;55.90;;;;;;1892290;76;21387;-49
2023/05/12 10:36:52;;;;;;;3.83;2.17;;;18.60;55.00;;;;;;1892225;76;21034;-48
2023/05/12 10:39:24;;;;;;;3.45;2.80;;;18.50;55.70;;;;;;1892259;75;21073;-48
2023/05/12 10:41:56;;;;;;;4.58;2.65;;;18.60;56.30;;;;;;1891608;75;21077;-47
2023/05/12 10:44:28;;;;;;;6.60;3.52;;;18.60;56.10;;;;;;1891058;75;21038;-48
2023/05/12 10:46:58;;;;;;;5.72;3.72;;;18.70;57.30;;;;;;1891666;76;21061;-49
2023/05/12 10:49:36;;;;;;;6.62;2.98;;;18.80;57.20;;;;;;1891786;76;21066;-48
2023/05/12 10:52:06;;;;;;;3.40;2.87;;;18.90;56.50;;;;;;1891591;76;21002;-48
2023/05/12 10:54:43;;;;;;;5.65;3.87;;;19.00;56.40;;;;;;1891654;76;21035;-48
2023/05/12 10:57:14;;;;;;;6.08;3.17;;;19.00;56.50;;;;;;1891693;76;21014;-48
2023/05/12 10:59:54;;;;;;;6.62;4.12;;;19.00;56.40;;;;;;1891680;76;21105;-47
2023/05/12 11:02:28;;;;;;;5.42;3.47;;;19.10;56.00;;;;;;1891266;75;21500;-49
2023/05/12 11:05:02;;;;;;;4.70;3.02;;;19.00;56.60;;;;;;1891595;75;21026;-48
2023/05/12 11:07:33;;;;;;;8.95;4.00;;;19.00;55.70;;;;;;1891622;76;21042;-48
2023/05/12 11:10:04;;;;;;;7.60;4.47;;;19.00;55.80;;;;;;1891364;75;21128;-48
2023/05/12 11:12:37;;;;;;;6.17;3.47;;;19.00;55.80;;;;;;1891648;76;21010;-48
2023/05/12 11:15:07;;;;;;;3.98;2.67;;;19.10;56.30;;;;;;1891643;76;21015;-48
2023/05/12 11:17:40;;;;;;;4.17;2.98;;;19.10;55.10;;;;;;1891708;76;21092;-48
2023/05/12 11:20:10;;;;;;;3.45;3.15;;;19.20;55.40;;;;;;1891656;76;21054;-47
2023/05/12 11:22:41;;;;;;;3.45;2.67;;;19.30;55.30;;;;;;1891793;76;21022;-48
2023/05/12 11:25:12;;;;;;;4.17;2.83;;;19.30;54.20;;;;;;1891768;76;21068;-48
2023/05/12 11:27:49;;;;;;;4.75;2.40;;;19.30;53.20;;;;;;1891737;76;21011;-48
2023/05/12 11:30:18;;;;;;;6.37;2.30;;;19.20;53.40;;;;;;1891406;75;21551;-49
2023/05/12 11:32:48;;;;;;;18.42;11.55;;;19.20;53.30;;;;;;1873032;77;21090;-48
2023/05/12 11:35:18;;;;;;;5.20;3.15;;;19.10;54.50;;;;;;1872920;76;21079;-48
2023/05/12 11:37:47;;;;;;;4.53;3.40;;;19.10;54.40;;;;;;1872968;77;21614;-48
2023/05/12 11:40:19;;;;;;;6.42;4.58;;;19.10;54.80;;;;;;1872919;77;21016;-48
2023/05/12 11:42:52;;;;;;;5.55;4.33;;;19.20;54.80;;;;;;1872541;76;21047;-49
2023/05/12 11:45:21;;;;;;;3.25;2.95;;;19.20;54.70;;;;;;1872865;76;21034;-50
2023/05/12 11:47:50;;;;;;;3.37;3.02;;;19.20;54.50;;;;;;1873064;76;21003;-48
2023/05/12 11:50:25;;;;;;;5.62;1.92;;;19.20;55.20;;;;;;1872802;77;21089;-49
2023/05/12 11:52:56;;;;;;;6.12;3.83;;;19.30;54.00;;;;;;1872848;76;21039;-48
2023/05/12 11:55:25;;;;;;;3.05;2.65;;;19.20;54.80;;;;;;1872929;76;21059;-48
2023/05/12 11:58:00;;;;;;;6.00;1.87;;;19.30;54.80;;;;;;1872943;77;21007;-47
2023/05/12 12:00:34;;;;;;;5.22;2.50;;;19.20;53.40;;;;;;1872777;76;21442;-48
2023/05/12 12:03:14;;;;;;;3.83;2.65;;;19.30;54.20;;;;;;1873152;77;21446;-48
2023/05/12 12:05:44;;;;;;;5.90;3.12;;;19.30;54.50;;;;;;1872897;77;21088;-49
2023/05/12 12:08:15;;;;;;;4.75;2.33;;;19.30;54.70;;;;;;1873000;77;21011;-47
2023/05/12 12:10:45;;;;;;;3.58;2.20;;;19.40;54.40;;;;;;1872925;77;21014;-50
2023/05/12 12:13:22;;;;;;;3.47;2.65;;;19.30;53.00;;;;;;1872926;76;21552;-47
2023/05/12 12:15:52;;;;;;;5.35;3.50;;;19.30;53.10;;;;;;1873028;77;21069;-48
2023/05/12 12:18:21;;;;;;;6.28;2.45;;;19.30;54.00;;;;;;1872930;77;21076;-47
2023/05/12 12:20:50;;;;;;;4.05;2.33;;;19.40;54.00;;;;;;1872893;76;21035;-47
2023/05/12 12:23:19;;;;;;;2.77;2.52;;;19.40;53.70;;;;;;1873030;77;21022;-48
2023/05/12 12:25:48;;;;;;;5.12;2.85;;;19.40;54.30;;;;;;1872891;77;21116;-47
2023/05/12 12:28:18;;;;;;;4.47;2.58;;;19.40;54.60;;;;;;1872849;77;21031;-47
2023/05/12 12:30:47;;;;;;;3.90;2.60;;;19.50;55.30;;;;;;1872894;76;21030;-48
2023/05/12 12:33:17;;;;;;;5.58;2.60;;;19.60;54.50;;;;;;1890671;75;21026;-48
2023/05/12 12:35:46;;;;;;;6.40;2.27;;;19.70;54.50;;;;;;1891638;76;21076;-47
2023/05/12 12:38:16;;;;;;;3.37;2.30;;;19.60;54.40;;;;;;1891655;76;21015;-51
2023/05/12 12:40:45;;;;;;;3.05;2.17;;;19.60;54.40;;;;;;1891642;76;21504;-51
2023/05/12 12:43:14;;;;;;;3.90;2.40;;;19.70;53.80;;;;;;1891774;76;21080;-48
2023/05/12 12:45:43;;;;;;;4.70;2.27;;;19.60;54.20;;;;;;1891718;76;21030;-49
2023/05/12 12:48:12;;;;;;;4.00;2.60;;;19.60;54.50;;;;;;1891695;76;21080;-50
2023/05/12 12:50:41;;;;;;;5.05;2.80;;;19.70;54.50;;;;;;1891642;76;21026;-49
2023/05/12 12:53:10;;;;;;;3.67;2.65;;;19.60;54.20;;;;;;1891578;76;21014;-50
2023/05/12 12:55:39;;;;;;;4.97;2.50;;;19.60;53.30;;;;;;1891598;76;21104;-48
2023/05/12 12:58:08;;;;;;;6.33;2.50;;;19.60;54.10;;;;;;1891658;76;21477;-48
2023/05/12 13:00:37;;;;;;;2.52;2.05;;;19.60;54.60;;;;;;1891494;76;21018;-48
2023/05/12 13:03:06;;;;;;;4.42;2.20;;;19.70;53.90;;;;;;1891525;76;21165;-49
2023/05/12 13:05:36;;;;;;;19.10;5.05;;;19.60;53.40;;;;;;1891614;76;21030;-49
2023/05/12 13:08:05;;;;;;;3.55;2.90;;;19.70;54.60;;;;;;1891521;76;21026;-48
2023/05/12 13:12:37;;;;;;;2.87;2.52;;;19.60;53.70;;;;;;1958978;73;22159;-49
2023/05/12 13:15:07;;;;;;;5.72;2.85;;;19.70;54.20;;;;;;1918371;75;21027;-49
2023/05/12 13:17:37;;;;;;;9.73;5.15;;;19.70;55.10;;;;;;1918421;75;21116;-50
2023/05/12 13:20:07;;;;;;;7.47;2.77;;;19.70;54.70;;;;;;1918282;74;21007;-49
2023/05/12 13:22:36;;;;;;;4.62;2.62;;;19.80;54.70;;;;;;1918273;74;21027;-49
2023/05/12 13:25:06;;;;;;;4.22;2.80;;;19.70;54.20;;;;;;1918399;75;21080;-51
2023/05/12 13:27:36;;;;;;;6.10;3.02;;;19.80;54.40;;;;;;1918447;75;21073;-50
2023/05/12 13:30:09;;;;;;;4.92;3.22;;;19.70;54.10;;;;;;1918268;75;21030;-50
2023/05/12 13:32:38;;;;;;;5.92;3.15;;;19.80;54.80;;;;;;1918348;75;21144;-52
2023/05/12 13:35:08;;;;;;;4.90;3.58;;;19.80;54.80;;;;;;1918328;75;21198;-49
2023/05/12 13:37:37;;;;;;;4.45;2.90;;;19.80;54.80;;;;;;1918367;75;21003;-49
2023/05/12 13:40:07;;;;;;;2.15;1.90;;;19.80;54.90;;;;;;1918366;75;21446;-50
2023/05/12 13:42:37;;;;;;;7.37;3.10;;;19.80;54.20;;;;;;1918466;75;21085;-50
2023/05/12 13:45:08;;;;;;;6.28;2.80;;;19.80;54.40;;;;;;1918364;74;21020;-49
2023/05/12 13:47:37;;;;;;;3.20;2.87;;;19.60;54.50;;;;;;1918426;75;21081;-48
2023/05/12 13:50:07;;;;;;;5.97;4.00;;;19.60;54.60;;;;;;1918395;75;21047;-50
2023/05/12 13:52:36;;;;;;;10.85;3.30;;;19.70;55.00;;;;;;1918282;75;21002;-50
2023/05/12 13:55:06;;;;;;;6.75;3.15;;;19.60;54.90;;;;;;1918527;75;21136;-49
2023/05/12 13:57:35;;;;;;;9.68;4.83;;;19.70;54.90;;;;;;1918411;75;20994;-49
2023/05/12 14:00:07;;;;;;;3.67;2.47;;;19.70;55.00;;;;;;1918416;75;21027;-50
2023/05/12 14:02:38;;;;;;;5.87;3.47;;;19.60;54.60;;;;;;1916983;74;21066;-49
2023/05/12 14:05:07;;;;;;;7.42;2.50;;;19.60;55.00;;;;;;1918413;75;21073;-52
2023/05/12 14:07:36;;;;;;;4.55;2.92;;;19.60;55.30;;;;;;1918459;75;20999;-51
2023/05/12 14:10:05;;;;;;;6.62;2.25;;;19.60;55.40;;;;;;1918307;74;21473;-50
2023/05/12 14:12:35;;;;;;;6.55;3.30;;;19.60;55.30;;;;;;1923300;74;21035;-51
2023/05/12 14:15:05;;;;;;;6.00;2.60;;;19.60;56.00;;;;;;1925370;74;21100;-50
2023/05/12 14:17:34;;;;;;;11.43;6.50;;;19.60;55.90;;;;;;1925485;74;21096;-49
2023/05/12 14:20:05;;;;;;;5.42;2.70;;;19.50;56.20;;;;;;1925562;74;21039;-52
2023/05/12 14:22:34;;;;;;;7.87;2.87;;;19.40;55.90;;;;;;1925321;74;21082;-51
2023/05/12 14:25:04;;;;;;;4.10;3.58;;;19.40;56.10;;;;;;1924871;74;20994;-49
2023/05/12 14:27:33;;;;;;;5.55;3.33;;;19.30;56.00;;;;;;1924988;74;21002;-49
2023/05/12 14:30:02;;;;;;;9.23;3.22;;;19.20;56.30;;;;;;1924790;74;21014;-49
2023/05/12 14:32:33;;;;;;;4.25;3.10;;;19.10;56.70;;;;;;1924872;74;20995;-49
2023/05/12 14:35:02;;;;;;;5.75;3.27;;;19.10;57.00;;;;;;1924808;74;21106;-49
2023/05/12 14:37:31;;;;;;;4.20;3.40;;;19.10;57.40;;;;;;1924810;74;21108;-49
2023/05/12 14:40:00;;;;;;;4.65;3.25;;;19.10;57.30;;;;;;1924911;74;21163;-50
2023/05/12 14:42:31;;;;;;;4.53;2.62;;;19.10;57.30;;;;;;1924817;74;21054;-49
2023/05/12 14:44:59;;;;;;;5.42;2.85;;;19.10;57.70;;;;;;1924801;74;21147;-49
2023/05/12 14:47:28;;;;;;;8.48;4.03;;;19.10;57.60;;;;;;1924820;74;21109;-49
2023/05/12 14:49:57;;;;;;;6.03;3.50;;;19.10;57.40;;;;;;1924811;74;21088;-49
2023/05/12 14:52:27;;;;;;;6.55;2.65;;;19.20;57.20;;;;;;1924892;74;21019;-51
2023/05/12 14:54:56;;;;;;;4.58;2.25;;;19.20;56.80;;;;;;1924768;74;21019;-49
2023/05/12 14:57:25;;;;;;;3.62;2.72;;;19.10;57.10;;;;;;1924911;74;21434;-49
2023/05/12 14:59:57;;;;;;;4.17;2.58;;;19.10;56.50;;;;;;1924904;74;21030;-50
2023/05/12 15:02:24;;;;;;;6.28;2.70;;;19.00;57.00;;;;;;1924674;74;21046;-50
2023/05/12 15:04:53;;;;;;;7.12;2.98;;;19.00;57.60;;;;;;1924892;74;21022;-49
2023/05/12 15:07:23;;;;;;;8.75;2.55;;;19.10;57.90;;;;;;1924889;74;21027;-50
2023/05/12 15:09:52;;;;;;;4.67;2.55;;;19.00;57.60;;;;;;1924859;74;21014;-49
2023/05/12 15:12:21;;;;;;;6.22;2.65;;;19.00;57.50;;;;;;1924886;74;21113;-49
2023/05/12 15:14:51;;;;;;;3.92;2.55;;;19.00;57.50;;;;;;1924779;74;21022;-50
2023/05/12 15:17:20;;;;;;;8.53;3.17;;;19.00;57.80;;;;;;1924940;74;21030;-49
2023/05/12 15:19:49;;;;;;;4.47;3.15;;;18.90;58.00;;;;;;1924962;74;21078;-49
2023/05/12 15:22:19;;;;;;;4.67;3.25;;;18.80;58.00;;;;;;1924983;74;21014;-50
2023/05/12 15:24:48;;;;;;;5.22;2.50;;;18.80;58.30;;;;;;1924856;74;21105;-49
2023/05/12 15:27:17;;;;;;;4.85;2.90;;;18.80;58.30;;;;;;1925016;74;21112;-48
2023/05/12 15:29:46;;;;;;;5.85;3.85;;;18.70;58.80;;;;;;1924812;74;20995;-49
2023/05/12 15:32:15;;;;;;;6.85;3.00;;;18.70;59.10;;;;;;1924685;74;21031;-48
2023/05/12 15:34:44;;;;;;;4.22;2.30;;;18.70;59.30;;;;;;1924578;74;21026;-49
2023/05/12 15:37:14;;;;;;;6.42;3.20;;;18.60;59.00;;;;;;1924775;74;21105;-49
2023/05/12 15:39:43;;;;;;;4.87;3.10;;;18.60;59.30;;;;;;1924653;74;21003;-48
2023/05/12 15:42:12;;;;;;;4.78;3.02;;;18.50;59.60;;;;;;1924640;74;21003;-48
2023/05/12 15:44:41;;;;;;;9.63;3.33;;;18.50;59.60;;;;;;1924740;74;21003;-50
2023/05/12 15:47:10;;;;;;;7.17;3.62;;;18.40;60.00;;;;;;1924650;74;21084;-49
2023/05/12 15:49:39;;;;;;;7.65;4.12;;;18.40;60.30;;;;;;1924641;74;21148;-51
2023/05/12 15:52:10;;;;;;;7.87;3.50;;;18.30;60.60;;;;;;1924644;74;20995;-49
2023/05/12 15:54:39;;;;;;;6.05;3.83;;;18.30;60.90;;;;;;1924548;74;21084;-49
2023/05/12 15:57:08;;;;;;;8.60;2.83;;;18.20;61.30;;;;;;1924662;74;20999;-50
2023/05/12 15:59:38;;;;;;;5.75;3.50;;;18.20;61.50;;;;;;1924664;74;21054;-50
2023/05/12 16:02:07;;;;;;;8.45;4.10;;;18.20;61.80;;;;;;1924689;74;21109;-49
2023/05/12 16:04:36;;;;;;;20.65;5.60;;;18.10;62.10;;;;;;1924752;74;21543;-50
2023/05/12 16:07:05;;;;;;;7.20;4.05;;;18.00;62.40;;;;;;1924670;74;21003;-48
2023/05/12 16:09:34;;;;;;;13.43;6.92;;;18.00;62.60;;;;;;1924776;74;21108;-50
2023/05/12 16:12:03;;;;;;;8.45;5.12;;;17.90;62.70;;;;;;1924703;74;21019;-50
2023/05/12 16:14:32;;;;;;;12.30;7.45;;;17.90;63.00;;;;;;1924852;74;21010;-51
2023/05/12 16:17:02;;;;;;;7.45;4.83;;;17.80;63.20;;;;;;1924677;74;21023;-50
2023/05/12 16:19:30;;;;;;;13.65;7.42;;;17.80;63.40;;;;;;1924606;74;21113;-48
2023/05/12 16:21:59;;;;;;;11.95;6.67;;;17.70;63.50;;;;;;1924912;74;21034;-49
2023/05/12 16:24:29;;;;;;;13.35;5.90;;;17.70;63.80;;;;;;1924853;74;21449;-49
2023/05/12 16:27:01;;;;;;;11.73;6.72;;;17.60;64.30;;;;;;1924945;74;21097;-49
2023/05/12 16:29:30;;;;;;;10.70;4.53;;;17.60;64.50;;;;;;1924779;74;21148;-49
2023/05/12 16:31:59;;;;;;;6.28;5.58;;;17.50;65.20;;;;;;1924845;74;21102;-49
2023/05/12 16:34:28;;;;;;;17.25;10.00;;;17.50;65.30;;;;;;1924852;74;21042;-48
2023/05/12 16:36:57;;;;;;;7.45;5.47;;;17.40;65.60;;;;;;1924866;74;21011;-49
2023/05/12 16:39:27;;;;;;;8.28;6.05;;;17.40;65.90;;;;;;1924847;74;21511;-48
2023/05/12 16:41:56;;;;;;;7.25;4.10;;;17.30;66.10;;;;;;1924867;74;20999;-50
2023/05/12 16:44:26;;;;;;;5.10;4.35;;;17.30;66.60;;;;;;1924971;74;21015;-52
2023/05/12 16:46:55;;;;;;;7.95;4.05;;;17.20;66.80;;;;;;1924727;74;21019;-52
2023/05/12 16:49:24;;;;;;;11.38;6.62;;;17.20;67.10;;;;;;1924700;74;21018;-52
2023/05/12 16:51:53;;;;;;;12.75;5.97;;;17.20;67.30;;;;;;1924756;74;21014;-50
2023/05/12 16:54:23;;;;;;;11.55;8.33;;;17.10;67.50;;;;;;1924749;74;21085;-49
2023/05/12 16:56:52;;;;;;;12.30;7.70;;;17.10;67.60;;;;;;1924915;74;21445;-52
2023/05/12 16:59:21;;;;;;;13.75;8.05;;;17.10;68.00;;;;;;1924658;74;21023;-51
2023/05/12 17:01:50;;;;;;;11.83;6.70;;;17.00;68.10;;;;;;1924658;74;21050;-49
2023/05/12 17:04:19;;;;;;;9.90;5.75;;;17.00;68.30;;;;;;1924611;74;21120;-49
2023/05/12 17:06:49;;;;;;;9.98;5.75;;;17.00;68.40;;;;;;1924728;74;21092;-49
2023/05/12 17:09:18;;;;;;;8.63;6.08;;;16.90;68.80;;;;;;1924578;74;21088;-50
2023/05/12 17:11:47;;;;;;;7.03;5.75;;;16.90;68.90;;;;;;1924634;74;21023;-48
2023/05/12 17:14:16;;;;;;;11.63;6.50;;;16.90;68.80;;;;;;1924712;74;21043;-49
2023/05/12 17:16:45;;;;;;;9.45;5.30;;;16.80;68.90;;;;;;1924636;74;21030;-50
2023/05/12 17:19:15;;;;;;;11.85;5.87;;;16.80;69.20;;;;;;1924635;74;21120;-49
2023/05/12 17:21:44;;;;;;;12.05;6.75;;;16.70;69.10;;;;;;1924814;74;21416;-51
2023/05/12 17:24:13;;;;;;;10.25;5.87;;;16.70;69.20;;;;;;1924575;74;21026;-49
2023/05/12 17:26:42;;;;;;;9.45;6.15;;;16.60;69.20;;;;;;1924640;74;21022;-49
2023/05/12 17:29:11;;;;;;;10.78;6.15;;;16.60;69.40;;;;;;1924644;74;21135;-48
2023/05/12 17:31:40;;;;;;;16.60;7.85;;;16.50;69.40;;;;;;1924708;74;21382;-50
2023/05/12 17:34:09;;;;;;;7.55;5.12;;;16.50;69.40;;;;;;1924620;74;21014;-51
2023/05/12 17:36:38;;;;;;;9.25;6.28;;;16.40;69.40;;;;;;1924728;74;21019;-49
2023/05/12 17:39:08;;;;;;;28.87;16.32;;;16.40;69.50;;;;;;1924799;74;21019;-49
2023/05/12 17:41:37;;;;;;;15.93;9.33;;;16.40;69.50;;;;;;1924743;74;21026;-49
2023/05/12 17:44:06;;;;;;;13.95;7.95;;;16.40;69.50;;;;;;1924699;74;21015;-48
2023/05/12 17:46:35;;;;;;;6.47;4.90;;;16.30;69.50;;;;;;1924706;74;21023;-48
2023/05/12 17:49:04;;;;;;;12.73;5.03;;;16.30;69.40;;;;;;1924766;74;21039;-49
2023/05/12 17:51:34;;;;;;;19.80;11.57;;;16.30;69.40;;;;;;1924685;74;21006;-49
2023/05/12 17:54:03;;;;;;;9.93;5.97;;;16.30;69.40;;;;;;1924663;74;21006;-50
2023/05/12 17:56:32;;;;;;;18.75;13.25;;;16.30;69.40;;;;;;1924686;74;21450;-49
2023/05/12 17:59:01;;;;;;;8.70;4.33;;;16.30;69.40;;;;;;1924805;74;21116;-48
2023/05/12 18:01:30;;;;;;;11.57;5.47;;;16.20;69.30;;;;;;1924859;74;21030;-48
2023/05/12 18:03:59;;;;;;;9.58;4.45;;;16.20;69.40;;;;;;1924794;74;21030;-48
2023/05/12 18:06:29;;;;;;;14.05;5.60;;;16.20;69.40;;;;;;1924841;74;21031;-49
2023/05/12 18:08:58;;;;;;;5.72;4.45;;;16.20;69.40;;;;;;1924796;74;21014;-49
2023/05/12 18:11:28;;;;;;;5.83;4.37;;;16.10;69.30;;;;;;1924734;74;21503;-51
2023/05/12 18:14:00;;;;;;;8.30;4.90;;;16.10;69.30;;;;;;1920958;74;21043;-49
2023/05/12 18:16:27;;;;;;;7.25;4.15;;;16.10;69.30;;;;;;1905279;74;21015;-49
2023/05/12 18:18:57;;;;;;;7.08;4.42;;;16.10;69.20;;;;;;1905350;75;21442;-48
2023/05/12 18:21:26;;;;;;;23.02;11.25;;;16.00;69.30;;;;;;1905469;75;20995;-49
2023/05/12 18:23:55;;;;;;;10.75;6.17;;;16.00;69.30;;;;;;1905352;75;21031;-49
2023/05/12 18:26:25;;;;;;;12.25;7.33;;;16.00;69.40;;;;;;1905357;75;21092;-49
2023/05/12 18:28:54;;;;;;;14.25;5.97;;;16.00;69.40;;;;;;1905358;75;21019;-48
2023/05/12 18:31:25;;;;;;;29.60;11.48;;;15.90;69.50;;;;;;1905362;75;21039;-48
2023/05/12 18:33:54;;;;;;;13.50;7.40;;;15.90;69.50;;;;;;1905378;75;21086;-49
2023/05/12 18:36:24;;;;;;;13.80;7.30;;;15.90;69.60;;;;;;1905325;75;21004;-52
2023/05/12 18:38:53;;;;;;;9.75;5.28;;;15.90;69.50;;;;;;1904818;74;21024;-49
2023/05/12 18:41:23;;;;;;;8.25;3.67;;;15.80;69.60;;;;;;1905333;75;21109;-49
2023/05/12 18:43:51;;;;;;;5.58;3.95;;;15.80;69.70;;;;;;1905451;75;20996;-49
2023/05/12 18:46:21;;;;;;;7.92;3.27;;;15.80;69.70;;;;;;1905457;75;21027;-49
2023/05/12 18:48:50;;;;;;;12.05;7.92;;;15.70;69.70;;;;;;1905381;74;21011;-48
2023/05/12 18:51:19;;;;;;;6.15;5.22;;;15.70;69.80;;;;;;1905469;75;21101;-49
2023/05/12 18:53:49;;;;;;;7.47;6.75;;;15.70;69.80;;;;;;1905360;75;21012;-50
2023/05/12 18:56:18;;;;;;;7.15;4.67;;;15.70;69.90;;;;;;1905528;75;21019;-48
2023/05/12 18:58:47;;;;;;;6.05;4.20;;;15.70;69.90;;;;;;1905533;75;21008;-48
2023/05/12 19:01:16;;;;;;;5.30;3.70;;;15.70;70.00;;;;;;1905461;75;21024;-49
2023/05/12 19:03:45;;;;;;;7.08;6.28;;;15.60;70.00;;;;;;1905446;75;21097;-48
2023/05/12 19:06:14;;;;;;;3.87;2.92;;;15.60;70.30;;;;;;1905441;75;21020;-49
2023/05/12 19:08:43;;;;;;;6.33;3.85;;;15.60;70.40;;;;;;1905330;75;21180;-48
2023/05/12 19:11:12;;;;;;;17.80;10.85;;;15.50;70.50;;;;;;1905440;75;20984;-48
2023/05/12 19:13:44;;;;;;;15.23;11.15;;;15.50;70.70;;;;;;1905395;75;21594;-48
2023/05/12 19:16:12;;;;;;;19.42;10.70;;;15.50;70.80;;;;;;1922155;74;21058;-49
2023/05/12 19:18:41;;;;;;;7.25;3.87;;;15.50;70.90;;;;;;1924808;74;21074;-49
2023/05/12 19:21:11;;;;;;;4.95;3.10;;;15.50;71.10;;;;;;1924794;74;21152;-48
2023/05/12 19:23:40;;;;;;;5.87;3.50;;;15.50;71.10;;;;;;1924783;74;21007;-49
2023/05/12 19:26:09;;;;;;;18.65;3.52;;;15.50;71.20;;;;;;1924830;74;20991;-49
2023/05/12 19:28:39;;;;;;;5.12;3.00;;;15.50;71.40;;;;;;1924866;74;21015;-49
2023/05/12 19:31:08;;;;;;;8.80;3.87;;;15.50;71.50;;;;;;1924740;74;21027;-49
2023/05/12 19:33:37;;;;;;;6.67;5.97;;;15.50;71.50;;;;;;1924658;74;21031;-50
2023/05/12 19:36:06;;;;;;;16.77;7.62;;;15.40;71.60;;;;;;1925043;74;21120;-48
2023/05/12 19:38:35;;;;;;;13.40;9.73;;;15.40;71.70;;;;;;1924988;74;21023;-48
2023/05/12 19:41:05;;;;;;;11.93;6.75;;;15.40;71.70;;;;;;1924926;74;21023;-49
2023/05/12 19:43:33;;;;;;;9.38;6.72;;;15.40;71.80;;;;;;1924705;74;21003;-49
2023/05/12 19:46:03;;;;;;;8.13;4.28;;;15.40;71.80;;;;;;1924666;74;21047;-49
2023/05/12 19:48:32;;;;;;;7.45;4.92;;;15.40;71.90;;;;;;1924670;74;21096;-49
2023/05/12 19:51:01;;;;;;;6.35;3.40;;;15.40;72.00;;;;;;1924830;74;21054;-48
2023/05/12 19:53:29;;;;;;;15.40;5.25;;;15.40;72.10;;;;;;1924642;74;21002;-48
2023/05/12 19:55:58;;;;;;;8.10;5.65;;;15.40;72.20;;;;;;1924732;74;21006;-48
2023/05/12 19:58:28;;;;;;;7.25;5.75;;;15.40;72.50;;;;;;1924747;74;21104;-48
2023/05/12 20:00:57;;;;;;;12.88;8.08;;;15.40;72.60;;;;;;1924824;74;21116;-48
2023/05/12 20:03:26;;;;;;;13.32;7.58;;;15.40;72.80;;;;;;1924664;74;21011;-48
2023/05/12 20:05:55;;;;;;;5.22;4.10;;;15.40;72.90;;;;;;1924697;74;21080;-48
2023/05/12 20:08:25;;;;;;;7.97;4.35;;;15.40;72.80;;;;;;1924724;74;21080;-49
2023/05/12 20:10:54;;;;;;;9.98;5.03;;;15.30;72.70;;;;;;1924790;74;21112;-49
2023/05/12 20:13:23;;;;;;;5.67;3.77;;;15.30;72.90;;;;;;1924759;74;21033;-48
2023/05/12 20:15:52;;;;;;;5.35;3.75;;;15.30;73.00;;;;;;1924740;74;21050;-48
2023/05/12 20:18:22;;;;;;;5.03;4.10;;;15.30;73.10;;;;;;1924979;74;21101;-49
2023/05/12 20:20:51;;;;;;;5.60;4.55;;;15.20;73.20;;;;;;1924866;74;21030;-48
2023/05/12 20:23:20;;;;;;;4.25;3.80;;;15.20;73.30;;;;;;1924800;74;21532;-48
2023/05/12 20:25:49;;;;;;;5.60;4.10;;;15.20;73.40;;;;;;1924854;74;21080;-48
2023/05/12 20:28:20;;;;;;;12.10;7.25;;;15.20;73.40;;;;;;1924835;74;21438;-48
2023/05/12 20:30:49;;;;;;;5.33;3.70;;;15.20;73.40;;;;;;1924790;74;20991;-48
2023/05/12 20:33:18;;;;;;;6.20;3.75;;;15.10;73.50;;;;;;1924796;74;21092;-49
2023/05/12 20:35:47;;;;;;;5.10;3.10;;;15.10;73.60;;;;;;1924787;74;21135;-51
2023/05/12 20:38:16;;;;;;;5.87;3.42;;;15.10;73.70;;;;;;1924752;74;21088;-51
2023/05/12 20:40:45;;;;;;;4.08;3.52;;;15.10;73.80;;;;;;1924803;74;21042;-51
2023/05/12 20:43:14;;;;;;;6.10;3.98;;;15.10;73.80;;;;;;1924762;74;21109;-52
2023/05/12 20:45:43;;;;;;;9.68;3.70;;;15.10;73.70;;;;;;1924788;74;21007;-51
2023/05/12 20:48:13;;;;;;;7.00;3.65;;;15.10;73.80;;;;;;1924731;74;20986;-50
2023/05/12 20:50:42;;;;;;;4.47;3.65;;;15.10;73.80;;;;;;1924773;74;21058;-49
2023/05/12 20:53:12;;;;;;;6.53;3.40;;;15.10;73.90;;;;;;1924623;74;21062;-52
2023/05/12 20:55:46;;;;;;;4.92;3.40;;;15.10;74.50;;;;;;1924594;74;21019;-51
2023/05/12 20:58:12;;;;;;;7.17;3.55;;;15.10;74.10;;;;;;1923489;74;21070;-49
2023/05/12 21:00:41;;;;;;;5.85;3.30;;;15.10;74.20;;;;;;1924690;74;21036;-50
2023/05/12 21:03:15;;;;;;;5.75;3.60;;;15.10;74.20;;;;;;1924641;74;21006;-49
2023/05/12 21:05:43;;;;;;;5.40;3.20;;;15.10;74.20;;;;;;1924386;74;21019;-49
2023/05/12 21:08:12;;;;;;;3.87;3.20;;;15.10;74.30;;;;;;1924744;74;21039;-49
2023/05/12 21:10:41;;;;;;;6.53;3.62;;;15.10;74.50;;;;;;1924793;74;21011;-51
2023/05/12 21:13:10;;;;;;;5.92;3.00;;;15.10;74.50;;;;;;1924695;74;21019;-49
2023/05/12 21:15:39;;;;;;;4.83;3.40;;;15.20;74.60;;;;;;1924671;74;21010;-49
2023/05/12 21:18:08;;;;;;;6.47;4.00;;;15.20;74.70;;;;;;1924755;74;21047;-49
2023/05/12 21:20:37;;;;;;;5.95;3.50;;;15.20;74.60;;;;;;1924737;74;21003;-49
2023/05/12 21:23:12;;;;;;;6.95;4.05;;;15.30;74.90;;;;;;1924831;74;21054;-49
2023/05/12 21:25:37;;;;;;;9.80;3.95;;;15.30;75.10;;;;;;1923204;74;21050;-50
2023/05/12 21:28:06;;;;;;;10.88;4.45;;;15.30;75.10;;;;;;1924801;74;21014;-48
2023/05/12 21:30:36;;;;;;;6.03;3.20;;;15.30;75.20;;;;;;1924761;74;21019;-49
2023/05/12 21:33:05;;;;;;;5.10;3.35;;;15.30;75.00;;;;;;1924874;74;20995;-48
2023/05/12 21:35:34;;;;;;;6.65;3.67;;;15.30;74.90;;;;;;1924950;74;21019;-51
2023/05/12 21:38:06;;;;;;;7.05;4.62;;;15.30;74.90;;;;;;1924888;74;21023;-49
2023/05/12 21:40:34;;;;;;;5.72;4.42;;;15.20;74.90;;;;;;1924888;74;21023;-50
2023/05/12 21:43:03;;;;;;;8.70;5.05;;;15.20;74.90;;;;;;1924756;74;21072;-48
2023/05/12 21:45:32;;;;;;;6.37;5.15;;;15.20;74.80;;;;;;1924773;74;21046;-49
2023/05/12 21:48:01;;;;;;;4.53;4.03;;;15.10;74.70;;;;;;1924743;74;21011;-49
2023/05/12 21:50:30;;;;;;;6.08;4.08;;;15.00;74.80;;;;;;1924715;74;21031;-48
2023/05/12 21:52:59;;;;;;;5.90;4.33;;;15.00;75.00;;;;;;1924759;74;21414;-48
2023/05/12 21:55:28;;;;;;;4.67;4.05;;;15.00;75.00;;;;;;1924822;74;21498;-49
2023/05/12 21:57:57;;;;;;;5.33;4.03;;;15.00;75.70;;;;;;1924743;74;21005;-49
2023/05/12 22:00:26;;;;;;;9.53;4.90;;;15.00;75.20;;;;;;1924769;74;21006;-49
2023/05/12 22:02:55;;;;;;;7.50;5.30;;;14.90;75.20;;;;;;1924729;74;21089;-50
2023/05/12 22:05:24;;;;;;;8.13;4.90;;;14.90;75.20;;;;;;1924870;74;21031;-49
2023/05/12 22:07:54;;;;;;;5.75;4.62;;;14.90;75.20;;;;;;1924811;74;21035;-49
2023/05/12 22:10:23;;;;;;;7.03;5.08;;;14.90;75.30;;;;;;1924719;74;21019;-48
2023/05/12 22:12:53;;;;;;;12.00;5.15;;;14.90;75.30;;;;;;1924715;74;21054;-48
2023/05/12 22:15:22;;;;;;;6.58;4.15;;;14.80;75.30;;;;;;1924718;74;21054;-49
2023/05/12 22:17:52;;;;;;;5.45;3.75;;;14.80;75.50;;;;;;1924786;74;21055;-49
2023/05/12 22:20:22;;;;;;;4.08;3.50;;;14.80;75.60;;;;;;1924815;74;21003;-49
2023/05/12 22:22:50;;;;;;;3.37;3.05;;;14.80;75.50;;;;;;1924715;74;21006;-49
2023/05/12 22:25:20;;;;;;;4.92;2.77;;;14.80;75.50;;;;;;1924724;74;21112;-49
2023/05/12 22:27:49;;;;;;;8.18;3.75;;;14.80;75.40;;;;;;1924723;74;21019;-48
2023/05/12 22:30:19;;;;;;;6.25;3.87;;;14.70;75.40;;;;;;1924692;74;21018;-48